Airport View

Enter AWOS ICAO identifier for current METAR.

ex. KFNL

KCSQ 041435Z AUTO 05006KT 10SM BKN050 BKN060 OVC070 25/23 A3009 RMK AO2

4 Jul 2020 14:42

Frequency: 124.75

Phone: 641-782-6286

Other Area AWOS: KI75 - KLWD - KICL - KAIO

TAF KDSM 041120Z 0412/0512 12007KT P6SM FEW250